Terminal Aerodrome Forecast
Issued by NWS

Current Version | Previous Version | Text Only | Print | Product List | Glossary On
Versions: 1 2 3 4 5 6 7 8 9 10 11 12 13 14 15 16 17 18
000
FTUS42 KFFC 230525
TAFRYY
TAF
KRYY 230525Z 2306/2406 18005KT P6SM FEW025 BKN100
     FM230900 19005KT 6SM BR BKN020
     FM231100 20006KT 3SM BR FEW008 BKN015
     FM231500 21010KT P6SM BKN025
     FM231700 21012KT P6SM SCT035 PROB30 2320/2402 5SM TSRA BKN035CB
     FM240200 21011KT P6SM VCSH BKN035 OVC100
     FM240500 22011KT P6SM -RA OVC012
      AMD NOT SKED TIL 231200=

USA.gov is the U.S. government's official web portal to all federal, state and local government web resources and services.